sensor_id;sensor_type;location;lat;lon;timestamp;temperature;humidity
3330;DHT22;1677;49.576;10.990;2022-10-15T00:02:11;15.70;99.90
3330;DHT22;1677;49.576;10.990;2022-10-15T00:04:37;15.90;99.90
3330;DHT22;1677;49.576;10.990;2022-10-15T00:07:03;15.90;99.90
3330;DHT22;1677;49.576;10.990;2022-10-15T00:09:28;15.70;99.90
3330;DHT22;1677;49.576;10.990;2022-10-15T00:11:54;15.50;99.90
3330;DHT22;1677;49.576;10.990;2022-10-15T00:14:19;15.40;99.90
3330;DHT22;1677;49.576;10.990;2022-10-15T00:16:45;15.30;99.90
3330;DHT22;1677;49.576;10.990;2022-10-15T00:19:11;15.20;99.90
3330;DHT22;1677;49.576;10.990;2022-10-15T00:21:37;15.00;99.90
3330;DHT22;1677;49.576;10.990;2022-10-15T00:24:03;14.90;99.90
3330;DHT22;1677;49.576;10.990;2022-10-15T00:26:29;14.90;99.90
3330;DHT22;1677;49.576;10.990;2022-10-15T00:28:58;14.80;99.90
3330;DHT22;1677;49.576;10.990;2022-10-15T00:31:25;14.70;99.90
3330;DHT22;1677;49.576;10.990;2022-10-15T00:33:53;14.80;99.90
3330;DHT22;1677;49.576;10.990;2022-10-15T00:36:25;14.80;99.90
3330;DHT22;1677;49.576;10.990;2022-10-15T00:38:51;14.80;99.90
3330;DHT22;1677;49.576;10.990;2022-10-15T00:41:39;14.70;99.90
3330;DHT22;1677;49.576;10.990;2022-10-15T00:49:38;14.50;99.90
3330;DHT22;1677;49.576;10.990;2022-10-15T00:52:08;14.50;99.90
3330;DHT22;1677;49.576;10.990;2022-10-15T00:54:42;14.70;99.90
3330;DHT22;1677;49.576;10.990;2022-10-15T00:57:09;14.90;99.90
3330;DHT22;1677;49.576;10.990;2022-10-15T00:59:40;15.10;99.90
3330;DHT22;1677;49.576;10.990;2022-10-15T01:02:09;15.70;99.90
3330;DHT22;1677;49.576;10.990;2022-10-15T01:04:35;15.90;99.90
3330;DHT22;1677;49.576;10.990;2022-10-15T01:07:02;15.90;99.90
3330;DHT22;1677;49.576;10.990;2022-10-15T01:09:27;15.90;99.90
3330;DHT22;1677;49.576;10.990;2022-10-15T01:11:54;16.00;99.90
3330;DHT22;1677;49.576;10.990;2022-10-15T01:15:04;16.10;99.90
3330;DHT22;1677;49.576;10.990;2022-10-15T01:17:41;15.70;99.90
3330;DHT22;1677;49.576;10.990;2022-10-15T01:31:09;15.00;99.90
3330;DHT22;1677;49.576;10.990;2022-10-15T01:33:48;14.80;99.90
3330;DHT22;1677;49.576;10.990;2022-10-15T01:36:22;14.80;99.90
3330;DHT22;1677;49.576;10.990;2022-10-15T01:41:48;14.70;99.90
3330;DHT22;1677;49.576;10.990;2022-10-15T01:44:19;14.60;99.90
3330;DHT22;1677;49.576;10.990;2022-10-15T01:46:46;14.80;99.90
3330;DHT22;1677;49.576;10.990;2022-10-15T01:49:17;14.70;99.90
3330;DHT22;1677;49.576;10.990;2022-10-15T01:51:47;14.70;99.90
3330;DHT22;1677;49.576;10.990;2022-10-15T01:54:16;14.80;99.90
3330;DHT22;1677;49.576;10.990;2022-10-15T01:56:45;14.80;99.90
3330;DHT22;1677;49.576;10.990;2022-10-15T01:59:16;15.10;99.90
3330;DHT22;1677;49.576;10.990;2022-10-15T02:01:43;15.40;99.90
3330;DHT22;1677;49.576;10.990;2022-10-15T02:04:37;15.60;99.90
3330;DHT22;1677;49.576;10.990;2022-10-15T02:07:12;15.70;99.90
3330;DHT22;1677;49.576;10.990;2022-10-15T02:10:13;16.00;99.90
3330;DHT22;1677;49.576;10.990;2022-10-15T02:15:50;16.00;99.90
3330;DHT22;1677;49.576;10.990;2022-10-15T02:18:40;15.70;99.90
3330;DHT22;1677;49.576;10.990;2022-10-15T02:24:07;15.30;99.90
3330;DHT22;1677;49.576;10.990;2022-10-15T02:26:35;15.20;99.90
3330;DHT22;1677;49.576;10.990;2022-10-15T02:29:02;15.10;99.90
3330;DHT22;1677;49.576;10.990;2022-10-15T02:31:32;15.10;99.90
3330;DHT22;1677;49.576;10.990;2022-10-15T02:34:03;15.00;99.90
3330;DHT22;1677;49.576;10.990;2022-10-15T02:36:30;14.90;99.90
3330;DHT22;1677;49.576;10.990;2022-10-15T02:38:56;14.70;99.90
3330;DHT22;1677;49.576;10.990;2022-10-15T02:41:23;14.70;99.90
3330;DHT22;1677;49.576;10.990;2022-10-15T02:43:49;14.70;99.90
3330;DHT22;1677;49.576;10.990;2022-10-15T02:46:16;14.60;99.90
3330;DHT22;1677;49.576;10.990;2022-10-15T02:48:43;14.60;99.90
3330;DHT22;1677;49.576;10.990;2022-10-15T02:51:08;14.70;99.90
3330;DHT22;1677;49.576;10.990;2022-10-15T02:53:34;14.60;99.90
3330;DHT22;1677;49.576;10.990;2022-10-15T02:55:59;14.70;99.90
3330;DHT22;1677;49.576;10.990;2022-10-15T02:58:25;14.80;99.90
3330;DHT22;1677;49.576;10.990;2022-10-15T03:00:51;15.30;99.90
3330;DHT22;1677;49.576;10.990;2022-10-15T03:03:16;15.50;99.90
3330;DHT22;1677;49.576;10.990;2022-10-15T03:05:42;15.60;99.90
3330;DHT22;1677;49.576;10.990;2022-10-15T03:10:41;15.50;99.90
3330;DHT22;1677;49.576;10.990;2022-10-15T03:13:07;15.50;99.90
3330;DHT22;1677;49.576;10.990;2022-10-15T03:15:32;15.40;99.90
3330;DHT22;1677;49.576;10.990;2022-10-15T03:17:58;15.40;99.90
3330;DHT22;1677;49.576;10.990;2022-10-15T03:20:23;15.50;99.90
3330;DHT22;1677;49.576;10.990;2022-10-15T03:22:49;15.30;99.90
3330;DHT22;1677;49.576;10.990;2022-10-15T03:25:15;15.00;99.90
3330;DHT22;1677;49.576;10.990;2022-10-15T03:27:40;15.10;99.90
3330;DHT22;1677;49.576;10.990;2022-10-15T03:30:07;15.00;99.90
3330;DHT22;1677;49.576;10.990;2022-10-15T03:32:32;15.00;99.90
3330;DHT22;1677;49.576;10.990;2022-10-15T03:34:58;14.90;99.90
3330;DHT22;1677;49.576;10.990;2022-10-15T03:37:23;14.70;99.90
3330;DHT22;1677;49.576;10.990;2022-10-15T03:39:49;14.80;99.90
3330;DHT22;1677;49.576;10.990;2022-10-15T03:42:15;14.70;99.90
3330;DHT22;1677;49.576;10.990;2022-10-15T03:44:40;14.60;99.90
3330;DHT22;1677;49.576;10.990;2022-10-15T03:47:06;14.60;99.90
3330;DHT22;1677;49.576;10.990;2022-10-15T03:49:32;14.70;99.90
3330;DHT22;1677;49.576;10.990;2022-10-15T03:51:57;14.60;99.90
3330;DHT22;1677;49.576;10.990;2022-10-15T03:54:23;14.50;99.90
3330;DHT22;1677;49.576;10.990;2022-10-15T03:56:49;14.40;99.90
3330;DHT22;1677;49.576;10.990;2022-10-15T03:59:14;14.60;99.90
3330;DHT22;1677;49.576;10.990;2022-10-15T04:01:41;14.70;99.90
3330;DHT22;1677;49.576;10.990;2022-10-15T04:04:07;14.80;99.90
3330;DHT22;1677;49.576;10.990;2022-10-15T04:06:34;15.40;99.90
3330;DHT22;1677;49.576;10.990;2022-10-15T04:09:00;15.70;99.90
3330;DHT22;1677;49.576;10.990;2022-10-15T04:11:25;15.70;99.90
3330;DHT22;1677;49.576;10.990;2022-10-15T04:13:51;15.60;99.90
3330;DHT22;1677;49.576;10.990;2022-10-15T04:16:17;15.40;99.90
3330;DHT22;1677;49.576;10.990;2022-10-15T04:18:42;15.30;99.90
3330;DHT22;1677;49.576;10.990;2022-10-15T04:21:08;15.10;99.90
3330;DHT22;1677;49.576;10.990;2022-10-15T04:23:34;15.00;99.90
3330;DHT22;1677;49.576;10.990;2022-10-15T04:26:00;15.00;99.90
3330;DHT22;1677;49.576;10.990;2022-10-15T04:28:27;14.80;99.90
3330;DHT22;1677;49.576;10.990;2022-10-15T04:30:59;14.70;99.90
3330;DHT22;1677;49.576;10.990;2022-10-15T04:33:25;14.60;99.90
3330;DHT22;1677;49.576;10.990;2022-10-15T04:36:18;14.60;99.90
3330;DHT22;1677;49.576;10.990;2022-10-15T04:38:43;14.50;99.90
3330;DHT22;1677;49.576;10.990;2022-10-15T04:41:10;14.50;99.90
3330;DHT22;1677;49.576;10.990;2022-10-15T04:43:37;14.70;99.90
3330;DHT22;1677;49.576;10.990;2022-10-15T04:46:06;14.90;99.90
3330;DHT22;1677;49.576;10.990;2022-10-15T04:48:33;14.90;99.90
3330;DHT22;1677;49.576;10.990;2022-10-15T04:51:18;14.80;99.90
3330;DHT22;1677;49.576;10.990;2022-10-15T04:53:43;14.80;99.90
3330;DHT22;1677;49.576;10.990;2022-10-15T04:56:11;14.70;99.90
3330;DHT22;1677;49.576;10.990;2022-10-15T04:58:40;14.60;99.90
3330;DHT22;1677;49.576;10.990;2022-10-15T05:01:08;14.80;99.90
3330;DHT22;1677;49.576;10.990;2022-10-15T05:03:36;14.90;99.90
3330;DHT22;1677;49.576;10.990;2022-10-15T05:06:14;15.00;99.90
3330;DHT22;1677;49.576;10.990;2022-10-15T05:08:40;15.50;99.90
3330;DHT22;1677;49.576;10.990;2022-10-15T05:11:15;15.90;99.90
3330;DHT22;1677;49.576;10.990;2022-10-15T05:13:41;15.90;99.90
3330;DHT22;1677;49.576;10.990;2022-10-15T05:16:13;15.80;99.90
3330;DHT22;1677;49.576;10.990;2022-10-15T05:18:39;15.60;99.90
3330;DHT22;1677;49.576;10.990;2022-10-15T05:21:05;15.50;99.90
3330;DHT22;1677;49.576;10.990;2022-10-15T05:23:31;15.40;99.90
3330;DHT22;1677;49.576;10.990;2022-10-15T05:26:01;15.20;99.90
3330;DHT22;1677;49.576;10.990;2022-10-15T05:28:28;15.00;99.90
3330;DHT22;1677;49.576;10.990;2022-10-15T05:30:53;14.90;99.90
3330;DHT22;1677;49.576;10.990;2022-10-15T05:33:19;14.80;99.90
3330;DHT22;1677;49.576;10.990;2022-10-15T05:35:45;14.70;99.90
3330;DHT22;1677;49.576;10.990;2022-10-15T05:38:10;14.60;99.90
3330;DHT22;1677;49.576;10.990;2022-10-15T05:40:36;14.50;99.90
3330;DHT22;1677;49.576;10.990;2022-10-15T05:43:02;14.50;99.90
3330;DHT22;1677;49.576;10.990;2022-10-15T05:45:27;14.40;99.90
3330;DHT22;1677;49.576;10.990;2022-10-15T05:47:54;14.40;99.90
3330;DHT22;1677;49.576;10.990;2022-10-15T05:50:21;14.40;99.90
3330;DHT22;1677;49.576;10.990;2022-10-15T05:52:47;14.40;99.90
3330;DHT22;1677;49.576;10.990;2022-10-15T05:55:12;14.40;99.90
3330;DHT22;1677;49.576;10.990;2022-10-15T05:57:38;14.30;99.90
3330;DHT22;1677;49.576;10.990;2022-10-15T06:00:05;14.30;99.90
3330;DHT22;1677;49.576;10.990;2022-10-15T06:02:31;14.40;99.90
3330;DHT22;1677;49.576;10.990;2022-10-15T06:04:56;14.70;99.90
3330;DHT22;1677;49.576;10.990;2022-10-15T06:07:22;14.80;99.90
3330;DHT22;1677;49.576;10.990;2022-10-15T06:09:48;15.20;99.90
3330;DHT22;1677;49.576;10.990;2022-10-15T06:12:13;15.90;99.90
3330;DHT22;1677;49.576;10.990;2022-10-15T06:14:39;16.10;99.90
3330;DHT22;1677;49.576;10.990;2022-10-15T06:17:04;16.30;99.90
3330;DHT22;1677;49.576;10.990;2022-10-15T06:19:30;16.10;99.90
3330;DHT22;1677;49.576;10.990;2022-10-15T06:21:56;15.90;99.90
3330;DHT22;1677;49.576;10.990;2022-10-15T06:24:22;15.70;99.90
3330;DHT22;1677;49.576;10.990;2022-10-15T06:26:47;15.50;99.90
3330;DHT22;1677;49.576;10.990;2022-10-15T06:29:13;15.30;99.90
3330;DHT22;1677;49.576;10.990;2022-10-15T06:31:38;15.20;99.90
3330;DHT22;1677;49.576;10.990;2022-10-15T06:34:04;15.10;99.90
3330;DHT22;1677;49.576;10.990;2022-10-15T06:36:29;15.00;99.90
3330;DHT22;1677;49.576;10.990;2022-10-15T06:38:55;14.90;99.90
3330;DHT22;1677;49.576;10.990;2022-10-15T06:41:20;14.90;99.90
3330;DHT22;1677;49.576;10.990;2022-10-15T06:43:49;14.80;99.90
3330;DHT22;1677;49.576;10.990;2022-10-15T06:46:15;14.90;99.90
3330;DHT22;1677;49.576;10.990;2022-10-15T06:48:40;14.90;99.90
3330;DHT22;1677;49.576;10.990;2022-10-15T06:51:06;14.80;99.90
3330;DHT22;1677;49.576;10.990;2022-10-15T06:53:32;14.80;99.90
3330;DHT22;1677;49.576;10.990;2022-10-15T06:56:02;14.70;99.90
3330;DHT22;1677;49.576;10.990;2022-10-15T06:58:28;14.70;99.90
3330;DHT22;1677;49.576;10.990;2022-10-15T07:00:59;14.70;99.90
3330;DHT22;1677;49.576;10.990;2022-10-15T07:03:25;14.70;99.90
3330;DHT22;1677;49.576;10.990;2022-10-15T07:05:50;15.00;99.90
3330;DHT22;1677;49.576;10.990;2022-10-15T07:08:16;15.40;99.90
3330;DHT22;1677;49.576;10.990;2022-10-15T07:10:41;15.50;99.90
3330;DHT22;1677;49.576;10.990;2022-10-15T07:13:07;15.80;99.90
3330;DHT22;1677;49.576;10.990;2022-10-15T07:15:32;16.00;99.90
3330;DHT22;1677;49.576;10.990;2022-10-15T07:17:58;16.10;99.90
3330;DHT22;1677;49.576;10.990;2022-10-15T07:20:30;16.30;99.90
3330;DHT22;1677;49.576;10.990;2022-10-15T07:22:57;16.10;99.90
3330;DHT22;1677;49.576;10.990;2022-10-15T07:25:24;16.00;99.90
3330;DHT22;1677;49.576;10.990;2022-10-15T07:27:49;15.80;99.90
3330;DHT22;1677;49.576;10.990;2022-10-15T07:30:15;15.60;99.90
3330;DHT22;1677;49.576;10.990;2022-10-15T07:32:41;15.50;99.90
3330;DHT22;1677;49.576;10.990;2022-10-15T07:35:07;15.40;99.90
3330;DHT22;1677;49.576;10.990;2022-10-15T07:37:33;15.40;99.90
3330;DHT22;1677;49.576;10.990;2022-10-15T07:39:59;15.40;99.90
3330;DHT22;1677;49.576;10.990;2022-10-15T07:42:25;15.30;99.90
3330;DHT22;1677;49.576;10.990;2022-10-15T07:44:51;15.30;99.90
3330;DHT22;1677;49.576;10.990;2022-10-15T07:47:17;15.30;99.90
3330;DHT22;1677;49.576;10.990;2022-10-15T07:49:42;15.30;99.90
3330;DHT22;1677;49.576;10.990;2022-10-15T07:52:08;15.30;99.90
3330;DHT22;1677;49.576;10.990;2022-10-15T07:54:34;15.40;99.90
3330;DHT22;1677;49.576;10.990;2022-10-15T07:56:59;15.40;99.90
3330;DHT22;1677;49.576;10.990;2022-10-15T07:59:25;15.30;99.90
3330;DHT22;1677;49.576;10.990;2022-10-15T08:01:50;15.30;99.90
3330;DHT22;1677;49.576;10.990;2022-10-15T08:04:17;15.30;99.90
3330;DHT22;1677;49.576;10.990;2022-10-15T08:06:42;15.30;99.90
3330;DHT22;1677;49.576;10.990;2022-10-15T08:09:08;15.30;99.90
3330;DHT22;1677;49.576;10.990;2022-10-15T08:11:33;15.40;99.90
3330;DHT22;1677;49.576;10.990;2022-10-15T08:13:59;15.60;99.90
3330;DHT22;1677;49.576;10.990;2022-10-15T08:16:24;15.80;99.90
3330;DHT22;1677;49.576;10.990;2022-10-15T08:18:50;16.00;99.90
3330;DHT22;1677;49.576;10.990;2022-10-15T08:21:15;16.10;99.90
3330;DHT22;1677;49.576;10.990;2022-10-15T08:23:41;16.10;99.90
3330;DHT22;1677;49.576;10.990;2022-10-15T08:26:07;16.10;99.90
3330;DHT22;1677;49.576;10.990;2022-10-15T08:28:33;16.20;99.90
3330;DHT22;1677;49.576;10.990;2022-10-15T08:31:03;16.10;99.90
3330;DHT22;1677;49.576;10.990;2022-10-15T08:33:29;16.10;99.90
3330;DHT22;1677;49.576;10.990;2022-10-15T08:35:54;16.00;99.90
3330;DHT22;1677;49.576;10.990;2022-10-15T08:38:20;15.90;99.90
3330;DHT22;1677;49.576;10.990;2022-10-15T08:40:51;15.90;99.90
3330;DHT22;1677;49.576;10.990;2022-10-15T08:43:23;15.90;99.90
3330;DHT22;1677;49.576;10.990;2022-10-15T08:45:54;15.90;99.90
3330;DHT22;1677;49.576;10.990;2022-10-15T08:48:29;15.80;99.90
3330;DHT22;1677;49.576;10.990;2022-10-15T08:51:13;15.80;99.90
3330;DHT22;1677;49.576;10.990;2022-10-15T08:53:56;15.80;99.90
3330;DHT22;1677;49.576;10.990;2022-10-15T08:56:42;15.80;99.90
3330;DHT22;1677;49.576;10.990;2022-10-15T09:01:51;15.90;99.90
3330;DHT22;1677;49.576;10.990;2022-10-15T09:04:33;15.90;99.90
3330;DHT22;1677;49.576;10.990;2022-10-15T09:09:44;16.00;99.90
3330;DHT22;1677;49.576;10.990;2022-10-15T09:12:51;16.30;99.90
3330;DHT22;1677;49.576;10.990;2022-10-15T09:15:20;16.80;99.90
3330;DHT22;1677;49.576;10.990;2022-10-15T09:17:48;17.30;99.90
3330;DHT22;1677;49.576;10.990;2022-10-15T09:20:24;17.70;99.90
3330;DHT22;1677;49.576;10.990;2022-10-15T09:22:51;17.90;99.90
3330;DHT22;1677;49.576;10.990;2022-10-15T09:25:22;18.10;99.90
3330;DHT22;1677;49.576;10.990;2022-10-15T09:27:49;18.20;99.90
3330;DHT22;1677;49.576;10.990;2022-10-15T09:30:47;18.40;99.90
3330;DHT22;1677;49.576;10.990;2022-10-15T09:33:36;18.50;99.90
3330;DHT22;1677;49.576;10.990;2022-10-15T09:44:01;18.20;99.90
3330;DHT22;1677;49.576;10.990;2022-10-15T09:46:27;18.00;99.90
3330;DHT22;1677;49.576;10.990;2022-10-15T09:49:11;17.90;99.90
3330;DHT22;1677;49.576;10.990;2022-10-15T09:54:33;17.80;99.90
3330;DHT22;1677;49.576;10.990;2022-10-15T09:57:08;17.60;99.90
3330;DHT22;1677;49.576;10.990;2022-10-15T09:59:34;17.60;99.90
3330;DHT22;1677;49.576;10.990;2022-10-15T10:02:02;17.40;99.90
3330;DHT22;1677;49.576;10.990;2022-10-15T10:04:32;17.40;99.90
3330;DHT22;1677;49.576;10.990;2022-10-15T10:07:04;17.40;99.90
3330;DHT22;1677;49.576;10.990;2022-10-15T10:09:32;17.40;99.90
3330;DHT22;1677;49.576;10.990;2022-10-15T10:12:17;17.60;99.90
3330;DHT22;1677;49.576;10.990;2022-10-15T10:14:56;18.20;99.90
3330;DHT22;1677;49.576;10.990;2022-10-15T10:17:29;18.20;99.90
3330;DHT22;1677;49.576;10.990;2022-10-15T10:20:13;18.40;99.90
3330;DHT22;1677;49.576;10.990;2022-10-15T10:27:53;18.20;99.90
3330;DHT22;1677;49.576;10.990;2022-10-15T10:30:19;18.10;99.90
3330;DHT22;1677;49.576;10.990;2022-10-15T10:32:45;18.10;99.90
3330;DHT22;1677;49.576;10.990;2022-10-15T10:35:23;17.90;99.90
3330;DHT22;1677;49.576;10.990;2022-10-15T10:37:49;17.80;99.90
3330;DHT22;1677;49.576;10.990;2022-10-15T10:40:27;17.70;99.90
3330;DHT22;1677;49.576;10.990;2022-10-15T10:51:15;17.50;99.90
3330;DHT22;1677;49.576;10.990;2022-10-15T10:56:29;17.60;99.90
3330;DHT22;1677;49.576;10.990;2022-10-15T10:59:13;17.70;99.90
3330;DHT22;1677;49.576;10.990;2022-10-15T11:01:39;17.70;99.90
3330;DHT22;1677;49.576;10.990;2022-10-15T11:04:12;17.80;99.90
3330;DHT22;1677;49.576;10.990;2022-10-15T11:19:44;19.70;99.90
3330;DHT22;1677;49.576;10.990;2022-10-15T11:25:33;20.10;99.90
3330;DHT22;1677;49.576;10.990;2022-10-15T11:28:26;19.80;99.90
3330;DHT22;1677;49.576;10.990;2022-10-15T11:30:57;19.50;99.90
3330;DHT22;1677;49.576;10.990;2022-10-15T11:33:45;19.20;99.90
3330;DHT22;1677;49.576;10.990;2022-10-15T11:41:59;18.60;99.90
3330;DHT22;1677;49.576;10.990;2022-10-15T11:52:34;18.40;99.90
3330;DHT22;1677;49.576;10.990;2022-10-15T11:57:37;18.30;99.90
3330;DHT22;1677;49.576;10.990;2022-10-15T12:00:33;18.30;99.90
3330;DHT22;1677;49.576;10.990;2022-10-15T12:03:08;18.30;99.90
3330;DHT22;1677;49.576;10.990;2022-10-15T12:05:40;18.20;99.90
3330;DHT22;1677;49.576;10.990;2022-10-15T12:08:10;18.30;99.90
3330;DHT22;1677;49.576;10.990;2022-10-15T12:13:40;18.90;99.90
3330;DHT22;1677;49.576;10.990;2022-10-15T12:16:23;19.10;99.90
3330;DHT22;1677;49.576;10.990;2022-10-15T12:19:11;19.30;99.90
3330;DHT22;1677;49.576;10.990;2022-10-15T12:22:04;19.40;99.90
3330;DHT22;1677;49.576;10.990;2022-10-15T12:29:40;19.20;99.90
3330;DHT22;1677;49.576;10.990;2022-10-15T12:35:01;19.70;99.90
3330;DHT22;1677;49.576;10.990;2022-10-15T12:37:33;19.70;99.90
3330;DHT22;1677;49.576;10.990;2022-10-15T12:40:06;19.50;99.90
3330;DHT22;1677;49.576;10.990;2022-10-15T12:43:02;19.10;99.90
3330;DHT22;1677;49.576;10.990;2022-10-15T12:45:37;18.70;99.90
3330;DHT22;1677;49.576;10.990;2022-10-15T12:50:31;18.40;99.90
3330;DHT22;1677;49.576;10.990;2022-10-15T12:55:43;18.50;99.90
3330;DHT22;1677;49.576;10.990;2022-10-15T13:00:56;19.00;99.90
3330;DHT22;1677;49.576;10.990;2022-10-15T13:03:40;19.10;99.90
3330;DHT22;1677;49.576;10.990;2022-10-15T13:16:44;20.40;99.90
3330;DHT22;1677;49.576;10.990;2022-10-15T13:19:22;20.50;99.90
3330;DHT22;1677;49.576;10.990;2022-10-15T13:21:53;20.20;99.90
3330;DHT22;1677;49.576;10.990;2022-10-15T13:24:21;20.00;99.90
3330;DHT22;1677;49.576;10.990;2022-10-15T13:26:48;19.90;99.90
3330;DHT22;1677;49.576;10.990;2022-10-15T13:29:21;20.00;99.90
3330;DHT22;1677;49.576;10.990;2022-10-15T13:31:48;19.90;99.90
3330;DHT22;1677;49.576;10.990;2022-10-15T13:36:46;19.60;99.90
3330;DHT22;1677;49.576;10.990;2022-10-15T13:39:32;19.50;99.90
3330;DHT22;1677;49.576;10.990;2022-10-15T13:44:40;19.10;99.90
3330;DHT22;1677;49.576;10.990;2022-10-15T13:47:40;18.90;99.90
3330;DHT22;1677;49.576;10.990;2022-10-15T13:50:25;18.80;99.90
3330;DHT22;1677;49.576;10.990;2022-10-15T13:53:21;18.80;99.90
3330;DHT22;1677;49.576;10.990;2022-10-15T13:55:49;18.70;99.90
3330;DHT22;1677;49.576;10.990;2022-10-15T14:00:50;18.50;99.90
3330;DHT22;1677;49.576;10.990;2022-10-15T14:03:23;18.50;99.90
3330;DHT22;1677;49.576;10.990;2022-10-15T14:05:51;18.50;99.90
3330;DHT22;1677;49.576;10.990;2022-10-15T14:08:26;18.80;99.90
3330;DHT22;1677;49.576;10.990;2022-10-15T14:10:56;19.40;99.90
3330;DHT22;1677;49.576;10.990;2022-10-15T14:13:21;20.00;99.90
3330;DHT22;1677;49.576;10.990;2022-10-15T14:18:41;20.50;99.90
3330;DHT22;1677;49.576;10.990;2022-10-15T14:21:12;20.50;99.90
3330;DHT22;1677;49.576;10.990;2022-10-15T14:23:39;20.20;99.90
3330;DHT22;1677;49.576;10.990;2022-10-15T14:26:05;20.10;99.90
3330;DHT22;1677;49.576;10.990;2022-10-15T14:28:32;19.80;99.90
3330;DHT22;1677;49.576;10.990;2022-10-15T14:31:00;19.60;99.90
3330;DHT22;1677;49.576;10.990;2022-10-15T14:38:32;19.30;99.90
3330;DHT22;1677;49.576;10.990;2022-10-15T14:41:03;19.20;99.90
3330;DHT22;1677;49.576;10.990;2022-10-15T14:43:35;19.20;99.90
3330;DHT22;1677;49.576;10.990;2022-10-15T14:46:04;19.10;99.90
3330;DHT22;1677;49.576;10.990;2022-10-15T14:48:36;19.00;99.90
3330;DHT22;1677;49.576;10.990;2022-10-15T14:51:05;18.80;99.90
3330;DHT22;1677;49.576;10.990;2022-10-15T14:53:35;18.70;99.90
3330;DHT22;1677;49.576;10.990;2022-10-15T14:56:07;18.60;99.90
3330;DHT22;1677;49.576;10.990;2022-10-15T14:58:36;18.60;99.90
3330;DHT22;1677;49.576;10.990;2022-10-15T15:01:05;18.50;99.90
3330;DHT22;1677;49.576;10.990;2022-10-15T15:03:40;18.50;99.90
3330;DHT22;1677;49.576;10.990;2022-10-15T15:06:06;18.60;99.90
3330;DHT22;1677;49.576;10.990;2022-10-15T15:08:32;18.90;99.90
3330;DHT22;1677;49.576;10.990;2022-10-15T15:11:01;19.40;99.90
3330;DHT22;1677;49.576;10.990;2022-10-15T15:13:29;19.70;99.90
3330;DHT22;1677;49.576;10.990;2022-10-15T15:15:55;19.90;99.90
3330;DHT22;1677;49.576;10.990;2022-10-15T15:18:21;20.10;99.90
3330;DHT22;1677;49.576;10.990;2022-10-15T15:20:48;20.10;99.90
3330;DHT22;1677;49.576;10.990;2022-10-15T15:23:19;19.80;99.90
3330;DHT22;1677;49.576;10.990;2022-10-15T15:25:47;19.50;99.90
3330;DHT22;1677;49.576;10.990;2022-10-15T15:28:15;19.20;99.90
3330;DHT22;1677;49.576;10.990;2022-10-15T15:30:43;18.90;99.90
3330;DHT22;1677;49.576;10.990;2022-10-15T15:33:13;18.60;99.90
3330;DHT22;1677;49.576;10.990;2022-10-15T15:35:40;18.40;99.90
3330;DHT22;1677;49.576;10.990;2022-10-15T15:38:10;18.30;99.90
3330;DHT22;1677;49.576;10.990;2022-10-15T15:40:36;18.10;99.90
3330;DHT22;1677;49.576;10.990;2022-10-15T15:43:01;18.00;99.90
3330;DHT22;1677;49.576;10.990;2022-10-15T15:45:27;17.90;99.90
3330;DHT22;1677;49.576;10.990;2022-10-15T15:47:53;17.90;99.90
3330;DHT22;1677;49.576;10.990;2022-10-15T15:50:23;17.80;99.90
3330;DHT22;1677;49.576;10.990;2022-10-15T15:52:49;17.80;99.90
3330;DHT22;1677;49.576;10.990;2022-10-15T15:55:14;17.70;99.90
3330;DHT22;1677;49.576;10.990;2022-10-15T15:57:40;17.70;99.90
3330;DHT22;1677;49.576;10.990;2022-10-15T16:00:08;17.70;99.90
3330;DHT22;1677;49.576;10.990;2022-10-15T16:02:34;17.60;99.90
3330;DHT22;1677;49.576;10.990;2022-10-15T16:05:00;17.60;99.90
3330;DHT22;1677;49.576;10.990;2022-10-15T16:07:27;17.60;99.90
3330;DHT22;1677;49.576;10.990;2022-10-15T16:09:52;17.80;99.90
3330;DHT22;1677;49.576;10.990;2022-10-15T16:12:18;17.90;99.90
3330;DHT22;1677;49.576;10.990;2022-10-15T16:14:43;18.10;99.90
3330;DHT22;1677;49.576;10.990;2022-10-15T16:17:09;18.20;99.90
3330;DHT22;1677;49.576;10.990;2022-10-15T16:19:35;18.20;99.90
3330;DHT22;1677;49.576;10.990;2022-10-15T16:22:00;18.10;99.90
3330;DHT22;1677;49.576;10.990;2022-10-15T16:24:26;18.00;99.90
3330;DHT22;1677;49.576;10.990;2022-10-15T16:26:51;17.90;99.90
3330;DHT22;1677;49.576;10.990;2022-10-15T16:29:17;17.80;99.90
3330;DHT22;1677;49.576;10.990;2022-10-15T16:31:43;17.70;99.90
3330;DHT22;1677;49.576;10.990;2022-10-15T16:34:08;17.60;99.90
3330;DHT22;1677;49.576;10.990;2022-10-15T16:36:34;17.50;99.90
3330;DHT22;1677;49.576;10.990;2022-10-15T16:39:00;17.50;99.90
3330;DHT22;1677;49.576;10.990;2022-10-15T16:41:26;17.40;99.90
3330;DHT22;1677;49.576;10.990;2022-10-15T16:43:52;17.30;99.90
3330;DHT22;1677;49.576;10.990;2022-10-15T16:46:18;17.30;99.90
3330;DHT22;1677;49.576;10.990;2022-10-15T16:48:44;17.30;99.90
3330;DHT22;1677;49.576;10.990;2022-10-15T16:51:13;17.20;99.90
3330;DHT22;1677;49.576;10.990;2022-10-15T16:53:40;17.20;99.90
3330;DHT22;1677;49.576;10.990;2022-10-15T16:56:21;17.20;99.90
3330;DHT22;1677;49.576;10.990;2022-10-15T16:58:47;17.20;99.90
3330;DHT22;1677;49.576;10.990;2022-10-15T17:01:17;17.20;99.90
3330;DHT22;1677;49.576;10.990;2022-10-15T17:03:43;17.20;99.90
3330;DHT22;1677;49.576;10.990;2022-10-15T17:06:12;17.40;99.90
3330;DHT22;1677;49.576;10.990;2022-10-15T17:08:48;17.80;99.90
3330;DHT22;1677;49.576;10.990;2022-10-15T17:11:36;18.10;99.90
3330;DHT22;1677;49.576;10.990;2022-10-15T17:14:09;18.40;99.90
3330;DHT22;1677;49.576;10.990;2022-10-15T17:16:37;18.50;99.90
3330;DHT22;1677;49.576;10.990;2022-10-15T17:19:03;18.40;99.90
3330;DHT22;1677;49.576;10.990;2022-10-15T17:21:30;18.10;99.90
3330;DHT22;1677;49.576;10.990;2022-10-15T17:23:58;17.80;99.90
3330;DHT22;1677;49.576;10.990;2022-10-15T17:26:29;17.60;99.90
3330;DHT22;1677;49.576;10.990;2022-10-15T17:28:57;17.50;99.90
3330;DHT22;1677;49.576;10.990;2022-10-15T17:31:25;17.30;99.90
3330;DHT22;1677;49.576;10.990;2022-10-15T17:33:55;17.20;99.90
3330;DHT22;1677;49.576;10.990;2022-10-15T17:36:22;17.10;99.90
3330;DHT22;1677;49.576;10.990;2022-10-15T17:38:48;17.00;99.90
3330;DHT22;1677;49.576;10.990;2022-10-15T17:41:17;17.00;99.90
3330;DHT22;1677;49.576;10.990;2022-10-15T17:43:43;16.90;99.90
3330;DHT22;1677;49.576;10.990;2022-10-15T17:46:17;16.90;99.90
3330;DHT22;1677;49.576;10.990;2022-10-15T17:48:44;16.90;99.90
3330;DHT22;1677;49.576;10.990;2022-10-15T17:51:12;16.80;99.90
3330;DHT22;1677;49.576;10.990;2022-10-15T17:53:39;16.80;99.90
3330;DHT22;1677;49.576;10.990;2022-10-15T17:56:10;16.70;99.90
3330;DHT22;1677;49.576;10.990;2022-10-15T17:58:36;16.70;99.90
3330;DHT22;1677;49.576;10.990;2022-10-15T18:01:02;16.70;99.90
3330;DHT22;1677;49.576;10.990;2022-10-15T18:03:28;16.70;99.90
3330;DHT22;1677;49.576;10.990;2022-10-15T18:05:53;16.80;99.90
3330;DHT22;1677;49.576;10.990;2022-10-15T18:08:19;17.00;99.90
3330;DHT22;1677;49.576;10.990;2022-10-15T18:10:49;17.10;99.90
3330;DHT22;1677;49.576;10.990;2022-10-15T18:13:15;17.20;99.90
3330;DHT22;1677;49.576;10.990;2022-10-15T18:15:49;17.20;99.90
3330;DHT22;1677;49.576;10.990;2022-10-15T18:18:16;17.20;99.90